CST,Max TemperatureF,Mean TemperatureF,Min TemperatureF,Max Dew PointF,MeanDew PointF,Min DewpointF,Max Humidity, Mean Humidity, Min Humidity, Max Sea Level PressureIn, Mean Sea Level PressureIn, Min Sea Level PressureIn, Max VisibilityMiles, Mean VisibilityMiles, Min VisibilityMiles, Max Wind SpeedMPH, Mean Wind SpeedMPH, Max Gust SpeedMPH,PrecipitationIn, CloudCover, Events, WindDirDegrees
2012-12-1,35,32,30,32,29,27,93,85,81,29.87,29.76,29.69,7,3,2,13,8,17,0.00,8,,235
2012-12-2,37,32,28,34,28,25,93,86,81,29.89,29.74,29.47,10,5,3,12,6,17,0.00,5,,139
2012-12-3,44,29,12,37,28,5,93,81,73,29.78,29.48,29.34,10,8,3,29,13,38,0.04,5,Rain-Snow,227
2012-12-4,19,14,8,10,6,3,92,77,67,30.37,30.15,29.82,10,9,3,21,12,30,0.00,6,Snow,282
2012-12-5,35,22,8,25,14,5,92,70,55,30.35,29.98,29.57,10,10,10,20,8,25,0.00,1,,154
2012-12-6,35,27,19,30,20,12,87,78,65,29.94,29.76,29.54,10,9,4,18,12,24,0.00,7,Snow,267
2012-12-7,19,11,1,12,4,-2,85,73,57,30.09,30.05,29.94,10,9,2,13,6,16,0.00,3,Snow,312
2012-12-8,15,8,0,12,6,-6,86,83,78,30.16,30.04,29.99,10,5,0,14,6,17,0.02,6,Snow,59
2012-12-9,12,0,-11,7,-4,-17,85,77,66,30.31,30.23,30.12,10,9,0,14,10,20,0.00,2,Snow,341
2012-12-10,10,-4,-18,7,-8,-26,85,78,70,30.10,29.86,29.68,10,8,0,8,1,,0.00,3,Snow,157
2012-12-11,10,-3,-16,7,-5,-22,85,76,66,29.92,29.79,29.66,10,8,2,14,7,17,0.00,3,Snow,262
2012-12-12,15,3,-9,9,2,-15,92,81,72,29.96,29.86,29.79,10,7,1,18,8,23,0.00,7,Snow,65
2012-12-13,17,12,6,12,6,3,92,82,79,30.10,30.06,29.97,10,7,1,6,3,,0.00,8,Snow,293
2012-12-14,32,24,17,21,19,12,93,80,64,30.06,29.93,29.78,10,9,2,20,7,24,0.00,3,Snow,147
2012-12-15,28,22,15,25,18,10,93,85,79,29.78,29.68,29.62,10,5,2,15,5,21,0.00,2,,323
2012-12-16,21,18,14,18,16,10,93,86,79,29.81,29.77,29.68,10,9,5,13,9,18,0.00,8,,324
2012-12-17,17,14,12,12,11,9,92,85,79,29.78,29.72,29.66,10,8,1,7,3,,0.00,8,Snow,248
2012-12-18,21,16,12,18,14,10,93,86,79,29.72,29.68,29.65,10,8,2,6,3,,0.00,8,Snow,91
2012-12-19,26,22,15,21,18,12,93,86,79,30.02,29.83,29.72,10,6,1,13,3,,0.02,8,Snow,304
2012-12-20,15,8,1,10,3,-2,86,81,73,30.17,30.10,30.02,10,7,2,10,6,,0.00,6,Snow,317
2012-12-21,10,4,0,7,0,-6,92,83,78,30.26,30.17,30.02,10,8,0,8,2,,0.00,5,Snow,313
2012-12-22,12,6,1,7,4,-4,85,82,73,30.18,30.07,29.98,10,8,2,13,6,18,0.00,6,Rain-Snow,292
2012-12-23,1,-5,-11,-2,-10,-18,85,78,70,30.21,30.18,30.14,10,9,4,9,5,,0.00,1,Snow,301
2012-12-24,-2,-8,-14,-9,-15,-22,84,75,70,30.32,30.21,30.14,10,10,4,8,5,,0.00,3,Snow,271
2012-12-25,-5,-10,-16,-11,-17,-24,84,77,70,30.43,30.39,30.33,10,10,5,8,4,,0.00,3,,240
2012-12-26,3,-5,-13,-4,-11,-18,85,76,66,30.36,30.30,30.27,10,9,3,5,0,,0.00,1,Rain-Snow,186
2012-12-27,10,0,-9,5,-1,-15,85,81,71,30.27,30.22,30.14,10,9,3,7,3,,0.00,5,Snow,77
2012-12-28,17,12,8,12,8,3,92,84,73,30.13,30.04,29.96,10,6,1,8,3,,0.00,7,Snow,202
2012-12-29,12,2,-9,7,2,-15,85,81,67,30.03,29.98,29.94,10,6,2,8,6,,0.00,6,Snow,242
2012-12-30,17,8,-2,14,6,-8,92,81,72,30.03,29.92,29.82,10,7,0,18,7,25,0.00,6,Snow,235
2012-12-31,-2,-9,-16,-8,-13,-24,84,77,70,30.21,30.17,30.04,10,9,2,12,6,,0.00,0,Snow,248